createdAt,value
2019-05-03T00:04:48.367Z,1.00
2019-05-03T00:10:18.552Z,1.00
2019-05-03T00:15:55.589Z,1.40
2019-05-03T00:21:25.082Z,1.00
2019-05-03T00:26:54.636Z,1.27
2019-05-03T00:32:25.679Z,1.00
2019-05-03T00:37:56.698Z,1.17
2019-05-03T00:43:26.465Z,1.40
2019-05-03T00:48:55.844Z,0.93
2019-05-03T00:54:25.404Z,1.30
2019-05-03T00:59:54.946Z,1.20
2019-05-03T01:05:24.481Z,1.43
2019-05-03T01:10:53.809Z,1.30
2019-05-03T01:16:25.008Z,1.50
2019-05-03T01:21:54.487Z,1.20
2019-05-03T01:27:23.852Z,1.10
2019-05-03T01:32:53.340Z,1.03
2019-05-03T01:38:22.854Z,1.40
2019-05-03T01:43:52.785Z,1.27
2019-05-03T01:49:35.977Z,1.10
2019-05-03T01:55:06.611Z,1.10
2019-05-03T02:00:36.011Z,1.10
2019-05-03T02:06:05.613Z,1.40
2019-05-03T02:11:35.018Z,1.40
2019-05-03T02:17:04.903Z,1.47
2019-05-03T02:22:34.301Z,1.40
2019-05-03T02:28:03.860Z,1.83
2019-05-03T02:33:33.198Z,1.20
2019-05-03T02:39:03.059Z,1.47
2019-05-03T02:44:35.591Z,1.60
2019-05-03T02:50:16.817Z,1.30
2019-05-03T02:55:46.550Z,1.50
2019-05-03T03:01:16.474Z,1.57
2019-05-03T03:06:48.169Z,1.70
2019-05-03T03:12:19.188Z,1.27
2019-05-03T03:17:50.353Z,1.37
2019-05-03T03:23:21.341Z,1.53
2019-05-03T03:28:56.323Z,1.30
2019-05-03T03:34:55.418Z,1.30
2019-05-03T03:40:20.480Z,1.43
2019-05-03T03:45:51.790Z,1.30
2019-05-03T03:51:26.332Z,1.33
2019-05-03T03:57:03.958Z,1.37
2019-05-03T04:02:29.556Z,1.40
2019-05-03T04:07:59.157Z,1.60
2019-05-03T04:13:28.708Z,1.47
2019-05-03T04:19:00.037Z,1.90
2019-05-03T04:24:30.948Z,1.70
2019-05-03T04:30:00.394Z,2.30
2019-05-03T04:35:29.895Z,2.97
2019-05-03T04:40:59.311Z,3.37
2019-05-03T04:46:31.405Z,3.33
2019-05-03T04:52:00.769Z,4.13
2019-05-03T04:57:39.847Z,5.20
2019-05-03T05:03:01.401Z,5.80
2019-05-03T05:08:30.762Z,5.60
2019-05-03T05:14:00.124Z,5.80
2019-05-03T05:19:31.084Z,6.70
2019-05-03T05:25:04.354Z,6.70
2019-05-03T05:30:35.303Z,7.00
2019-05-03T05:36:04.893Z,6.13
2019-05-03T05:41:34.817Z,6.57
2019-05-03T05:47:06.023Z,7.30
2019-05-03T05:52:35.341Z,8.20
2019-05-03T05:58:08.317Z,8.70
2019-05-03T06:03:37.910Z,9.20
2019-05-03T06:09:15.985Z,8.00
2019-05-03T06:14:47.511Z,8.47
2019-05-03T06:20:20.114Z,7.87
2019-05-03T06:25:49.778Z,9.80
2019-05-03T06:31:22.690Z,8.93
2019-05-03T06:36:55.285Z,8.40
2019-05-03T06:42:25.479Z,9.60
2019-05-03T06:47:55.153Z,9.67
2019-05-03T06:53:25.435Z,11.70
2019-05-03T06:58:55.239Z,11.27
2019-05-03T07:04:26.286Z,11.30
2019-05-03T07:09:57.249Z,12.07
2019-05-03T07:15:29.312Z,12.73
2019-05-03T07:20:58.967Z,15.20
2019-05-03T07:26:28.611Z,13.00
2019-05-03T07:31:58.437Z,14.90
2019-05-03T07:37:27.741Z,15.93
2019-05-03T07:42:57.138Z,15.47
2019-05-03T07:48:27.050Z,16.73
2019-05-03T07:53:56.483Z,22.23
2019-05-03T07:59:25.899Z,16.20
2019-05-03T08:04:55.353Z,15.53
2019-05-03T08:10:25.644Z,16.37
2019-05-03T08:15:55.892Z,16.70
2019-05-03T08:21:25.500Z,17.50
2019-05-03T08:26:55.770Z,17.27
2019-05-03T08:32:29.835Z,16.03
2019-05-03T08:38:00.375Z,16.43
2019-05-03T08:43:29.704Z,16.57
2019-05-03T08:48:59.251Z,15.83
2019-05-03T08:54:28.791Z,17.20
2019-05-03T08:59:58.342Z,16.63
2019-05-03T09:05:27.763Z,15.87
2019-05-03T09:11:05.122Z,15.30
2019-05-03T09:16:37.854Z,10.77
2019-05-03T09:22:07.593Z,11.60
2019-05-03T09:27:36.995Z,11.07
2019-05-03T09:33:09.062Z,9.63
2019-05-03T09:38:40.494Z,7.30
2019-05-03T09:44:10.019Z,3.80
2019-05-03T09:49:39.912Z,5.47
2019-05-03T09:55:27.415Z,4.63
2019-05-03T10:00:59.240Z,4.40
2019-05-03T10:06:29.106Z,5.40
2019-05-03T10:12:00.723Z,4.90
2019-05-03T10:17:36.079Z,3.23
2019-05-03T10:23:09.897Z,4.60
2019-05-03T10:28:39.853Z,5.77
2019-05-03T10:34:11.368Z,5.47
2019-05-03T10:39:41.154Z,4.23
2019-05-03T10:45:11.057Z,3.03
2019-05-03T10:50:40.851Z,3.23
2019-05-03T10:56:24.563Z,2.87
2019-05-03T11:01:57.221Z,3.60
2019-05-03T11:07:26.998Z,3.03
2019-05-03T11:12:58.629Z,3.00
2019-05-03T11:18:28.495Z,3.63
2019-05-03T11:23:58.258Z,3.57
2019-05-03T11:29:28.135Z,4.43
2019-05-03T11:35:00.013Z,4.57
2019-05-03T11:40:29.865Z,4.10
2019-05-03T11:45:59.469Z,4.70
2019-05-03T11:51:28.860Z,4.30
2019-05-03T11:57:00.251Z,3.47
2019-05-03T12:02:32.551Z,2.90
2019-05-03T12:08:10.818Z,2.60
2019-05-03T12:13:41.427Z,2.57
2019-05-03T12:19:17.027Z,2.43
2019-05-03T12:24:43.186Z,2.77
2019-05-03T12:30:15.299Z,3.70
2019-05-03T12:35:46.183Z,4.17
2019-05-03T12:41:16.214Z,4.57
2019-05-03T12:46:45.557Z,5.57
2019-05-03T12:52:17.400Z,6.37
2019-05-03T12:57:47.456Z,7.40
2019-05-03T13:03:19.729Z,12.10
2019-05-03T13:08:49.557Z,8.63
2019-05-03T13:14:19.079Z,9.90
2019-05-03T13:19:48.636Z,9.27
2019-05-03T13:25:18.276Z,8.80
2019-05-03T13:30:47.802Z,7.30
2019-05-03T13:36:18.347Z,8.20
2019-05-03T13:41:48.179Z,6.90
2019-05-03T13:47:17.769Z,6.90
2019-05-03T13:52:47.353Z,8.03
2019-05-03T13:58:17.095Z,7.87
2019-05-03T14:03:46.661Z,8.17
2019-05-03T14:09:16.753Z,8.50
2019-05-03T14:14:55.866Z,8.13
2019-05-03T14:20:43.987Z,7.97
2019-05-03T14:26:15.123Z,7.40
2019-05-03T14:31:46.118Z,7.20
2019-05-03T14:37:17.202Z,7.83
2019-05-03T14:42:47.057Z,6.37
2019-05-03T14:48:16.743Z,7.33
2019-05-03T14:53:49.175Z,6.90
2019-05-03T14:59:28.894Z,7.40
2019-05-03T15:04:58.324Z,8.00
2019-05-03T15:10:27.695Z,7.30
2019-05-03T15:15:57.185Z,7.80
2019-05-03T15:21:26.620Z,7.60
2019-05-03T15:26:56.064Z,6.70
2019-05-03T15:32:31.257Z,6.20
2019-05-03T15:38:00.767Z,6.27
2019-05-03T15:43:45.628Z,6.73
2019-05-03T15:49:15.312Z,8.07
2019-05-03T15:54:44.798Z,7.20
2019-05-03T16:00:16.117Z,6.90
2019-05-03T16:05:45.654Z,7.70
2019-05-03T16:11:15.044Z,6.30
2019-05-03T16:16:45.135Z,6.03
2019-05-03T16:22:17.634Z,6.77
2019-05-03T16:28:04.663Z,7.27
2019-05-03T16:33:35.016Z,6.87
2019-05-03T16:39:06.412Z,6.97
2019-05-03T16:44:35.825Z,7.60
2019-05-03T16:50:16.633Z,8.00
2019-05-03T16:55:48.890Z,7.40
2019-05-03T17:01:19.562Z,7.43
2019-05-03T17:07:06.652Z,8.27
2019-05-03T17:12:38.378Z,8.03
2019-05-03T17:18:09.000Z,8.53
2019-05-03T17:23:38.433Z,8.90
2019-05-03T17:29:07.877Z,9.33
2019-05-03T17:34:37.390Z,8.90
2019-05-03T17:45:58.780Z,7.60
2019-05-03T17:51:39.226Z,8.93
2019-05-03T17:57:24.272Z,8.30
2019-05-03T18:02:55.474Z,8.23
2019-05-03T18:08:32.282Z,9.30
2019-05-03T18:14:01.577Z,9.67
2019-05-03T18:19:30.885Z,8.40
2019-05-03T18:25:02.833Z,8.80
2019-05-03T18:30:32.113Z,12.93
2019-05-03T18:36:01.432Z,9.93
2019-05-03T18:41:30.737Z,9.80
2019-05-03T18:47:01.733Z,10.93
2019-05-03T18:52:31.044Z,10.77
2019-05-03T18:58:04.346Z,11.50
2019-05-03T19:03:34.482Z,10.17
2019-05-03T19:09:06.228Z,11.30
2019-05-03T19:14:35.623Z,10.70
2019-05-03T19:20:08.296Z,11.57
2019-05-03T19:25:47.021Z,13.20
2019-05-03T19:31:08.901Z,12.73
2019-05-03T19:36:39.207Z,12.40
2019-05-03T19:42:08.829Z,12.60
2019-05-03T19:47:38.183Z,11.10
2019-05-03T19:53:09.249Z,12.20
2019-05-03T19:58:38.624Z,12.00
2019-05-03T20:04:26.677Z,11.70
2019-05-03T20:09:55.989Z,11.83
2019-05-03T20:15:25.451Z,10.83
2019-05-03T20:20:55.388Z,10.37
2019-05-03T20:26:25.331Z,10.80
2019-05-03T20:31:55.182Z,12.60
2019-05-03T20:37:25.102Z,11.07
2019-05-03T20:42:56.196Z,11.60
2019-05-03T20:48:25.545Z,11.17
2019-05-03T20:53:57.522Z,11.07
2019-05-03T20:59:27.011Z,11.00
2019-05-03T21:04:56.290Z,10.90
2019-05-03T21:10:25.658Z,10.77
2019-05-03T21:15:59.604Z,11.10
2019-05-03T21:21:44.884Z,10.90
2019-05-03T21:27:14.235Z,10.63
2019-05-03T21:32:44.396Z,11.50
2019-05-03T21:38:13.675Z,10.80
2019-05-03T21:43:45.079Z,11.00
2019-05-03T21:49:15.754Z,11.70
2019-05-03T21:54:45.173Z,11.13
2019-05-03T22:00:16.407Z,10.77
2019-05-03T22:05:54.461Z,11.10
2019-05-03T22:11:16.696Z,11.43
2019-05-03T22:16:56.377Z,10.60
2019-05-03T22:22:30.356Z,11.97
2019-05-03T22:27:59.618Z,12.60
2019-05-03T22:33:29.492Z,12.37
2019-05-03T22:38:58.769Z,11.73
2019-05-03T22:44:30.393Z,13.90
2019-05-03T22:49:59.830Z,12.20
2019-05-03T22:55:29.147Z,13.30
2019-05-03T23:00:58.495Z,12.00
2019-05-03T23:06:27.781Z,13.20
2019-05-03T23:11:57.225Z,12.50
2019-05-03T23:17:26.771Z,13.80
2019-05-03T23:22:56.052Z,13.50
2019-05-03T23:28:25.328Z,12.70
2019-05-03T23:33:54.614Z,12.70
2019-05-03T23:39:24.908Z,14.10
2019-05-03T23:44:54.386Z,13.60
2019-05-03T23:50:24.869Z,13.57
2019-05-03T23:56:01.844Z,13.93
